createdAt,value
2018-07-23T00:01:14.514Z,13.53
2018-07-23T00:03:59.642Z,14.00
2018-07-23T00:09:33.514Z,12.13
2018-07-23T00:12:03.678Z,11.73
2018-07-23T00:14:33.757Z,10.83
2018-07-23T00:17:03.902Z,12.93
2018-07-23T00:19:43.005Z,11.87
2018-07-23T00:22:12.953Z,12.73
2018-07-23T00:24:56.418Z,12.80
2018-07-23T00:27:26.478Z,12.73
2018-07-23T00:32:43.186Z,13.57
2018-07-23T00:35:24.971Z,10.83
2018-07-23T00:37:55.102Z,11.10
2018-07-23T00:40:42.097Z,10.30
2018-07-23T00:43:12.210Z,16.10
2018-07-23T00:45:54.151Z,13.47
2018-07-23T00:48:24.189Z,12.67
2018-07-23T00:51:06.692Z,17.53
2018-07-23T00:53:36.802Z,11.50
2018-07-23T00:56:23.351Z,12.20
2018-07-23T00:58:53.449Z,12.30
2018-07-23T01:01:39.690Z,13.83
2018-07-23T01:04:09.778Z,14.83
2018-07-23T01:06:51.482Z,12.03
2018-07-23T01:09:21.539Z,12.27
2018-07-23T01:12:05.050Z,13.57
2018-07-23T01:14:35.169Z,12.90
2018-07-23T01:17:19.818Z,11.60
2018-07-23T01:19:50.082Z,16.23
2018-07-23T01:22:38.496Z,15.13
2018-07-23T01:25:08.614Z,10.97
2018-07-23T01:27:50.146Z,10.73
2018-07-23T01:30:20.267Z,14.60
2018-07-23T01:33:02.565Z,12.67
2018-07-23T01:35:32.647Z,12.77
2018-07-23T01:38:17.333Z,12.40
2018-07-23T01:40:47.422Z,12.80
2018-07-23T01:43:32.562Z,16.03
2018-07-23T01:46:03.430Z,16.00
2018-07-23T01:48:45.273Z,14.33
2018-07-23T01:51:15.223Z,13.53
2018-07-23T01:54:03.954Z,13.40
2018-07-23T01:56:40.906Z,14.03
2018-07-23T01:59:15.750Z,14.43
2018-07-23T02:01:45.775Z,12.43
2018-07-23T02:04:37.199Z,16.30
2018-07-23T02:07:08.182Z,15.03
2018-07-23T02:09:46.714Z,14.80
2018-07-23T02:12:16.942Z,14.57
2018-07-23T02:14:58.414Z,12.27
2018-07-23T02:17:28.489Z,13.00
2018-07-23T02:20:17.019Z,13.50
2018-07-23T02:22:47.123Z,13.80
2018-07-23T02:25:30.170Z,14.03
2018-07-23T02:28:00.638Z,14.13
2018-07-23T02:30:43.424Z,13.70
2018-07-23T02:33:12.946Z,12.33
2018-07-23T02:35:58.693Z,16.30
2018-07-23T02:38:28.750Z,15.23
2018-07-23T02:41:15.811Z,16.90
2018-07-23T02:43:45.989Z,14.50
2018-07-23T02:46:31.215Z,12.87
2018-07-23T02:49:01.835Z,14.00
2018-07-23T02:51:43.518Z,14.07
2018-07-23T02:54:13.770Z,13.43
2018-07-23T02:56:55.174Z,13.93
2018-07-23T02:59:25.232Z,13.13
2018-07-23T03:02:09.599Z,13.47
2018-07-23T03:04:39.682Z,17.27
2018-07-23T03:07:27.981Z,16.03
2018-07-23T03:09:58.103Z,14.10
2018-07-23T03:12:40.033Z,14.20
2018-07-23T03:15:10.431Z,16.87
2018-07-23T03:17:54.933Z,14.40
2018-07-23T03:20:25.090Z,14.00
2018-07-23T03:23:05.778Z,14.33
2018-07-23T03:25:35.949Z,16.20
2018-07-23T03:28:20.411Z,13.40
2018-07-23T03:30:50.470Z,12.57
2018-07-23T03:33:39.391Z,15.47
2018-07-23T03:36:09.534Z,14.57
2018-07-23T03:38:48.542Z,13.83
2018-07-23T03:41:18.698Z,13.20
2018-07-23T03:44:04.766Z,15.40
2018-07-23T03:46:34.862Z,13.83
2018-07-23T03:49:18.310Z,13.03
2018-07-23T03:51:48.430Z,13.33
2018-07-23T03:54:32.130Z,13.13
2018-07-23T03:57:02.190Z,16.20
2018-07-23T03:59:51.862Z,15.87
2018-07-23T04:02:22.003Z,14.33
2018-07-23T04:04:56.406Z,13.60
2018-07-23T04:07:26.517Z,14.43
2018-07-23T04:10:02.309Z,12.50
2018-07-23T04:12:32.411Z,12.37
2018-07-23T04:15:02.574Z,13.70
2018-07-23T04:17:32.665Z,11.17
2018-07-23T04:20:02.739Z,16.17
2018-07-23T04:22:33.710Z,19.30
2018-07-23T04:25:03.946Z,13.80
2018-07-23T04:27:34.021Z,13.93
2018-07-23T04:30:04.302Z,13.67
2018-07-23T04:32:34.349Z,14.63
2018-07-23T04:35:04.536Z,14.43
2018-07-23T04:37:34.562Z,14.30
2018-07-23T04:40:04.842Z,13.70
2018-07-23T04:42:34.943Z,15.43
2018-07-23T04:45:05.300Z,12.50
2018-07-23T04:47:35.409Z,16.83
2018-07-23T04:50:05.697Z,14.17
2018-07-23T04:52:36.788Z,15.87
2018-07-23T04:55:06.899Z,14.70
2018-07-23T04:57:37.182Z,12.00
2018-07-23T05:00:07.381Z,13.77
2018-07-23T05:02:37.453Z,11.60
2018-07-23T05:05:07.570Z,12.53
2018-07-23T05:07:39.042Z,12.77
2018-07-23T05:10:09.114Z,14.00
2018-07-23T05:12:39.190Z,13.67
2018-07-23T05:15:09.372Z,20.20
2018-07-23T05:17:39.510Z,14.40
2018-07-23T05:20:09.720Z,14.13
2018-07-23T05:22:39.802Z,12.87
2018-07-23T05:25:09.966Z,10.50
2018-07-23T05:27:39.990Z,13.70
2018-07-23T05:30:10.158Z,15.63
2018-07-23T05:32:40.246Z,11.10
2018-07-23T05:35:10.406Z,12.43
2018-07-23T05:37:40.530Z,11.83
2018-07-23T05:40:10.638Z,9.80
2018-07-23T05:42:40.720Z,14.90
2018-07-23T05:45:10.863Z,12.90
2018-07-23T05:47:40.982Z,10.10
2018-07-23T05:50:11.103Z,9.57
2018-07-23T05:52:41.469Z,10.80
2018-07-23T05:55:11.589Z,12.83
2018-07-23T05:57:41.677Z,9.87
2018-07-23T06:00:12.055Z,11.83
2018-07-23T06:02:42.124Z,13.23
2018-07-23T06:05:13.517Z,12.00
2018-07-23T06:07:43.607Z,15.87
2018-07-23T06:10:13.735Z,10.67
2018-07-23T06:12:43.798Z,9.77
2018-07-23T06:15:13.917Z,8.30
2018-07-23T06:17:43.990Z,13.50
2018-07-23T06:20:14.091Z,8.83
2018-07-23T06:22:44.399Z,9.93
2018-07-23T06:25:14.542Z,10.60
2018-07-23T06:27:44.632Z,13.27
2018-07-23T06:30:14.836Z,9.40
2018-07-23T06:32:44.959Z,9.73
2018-07-23T06:35:15.059Z,10.53
2018-07-23T06:37:45.151Z,10.27
2018-07-23T06:40:15.358Z,10.93
2018-07-23T06:42:45.451Z,9.43
2018-07-23T06:45:15.540Z,16.70
2018-07-23T06:47:46.506Z,10.67
2018-07-23T06:50:16.639Z,11.13
2018-07-23T06:52:46.823Z,21.70
2018-07-23T06:55:16.982Z,20.67
2018-07-23T06:57:47.058Z,8.70
2018-07-23T07:00:17.112Z,11.93
2018-07-23T07:02:48.570Z,9.33
2018-07-23T07:05:18.639Z,12.47
2018-07-23T07:07:48.745Z,11.13
2018-07-23T07:10:18.885Z,16.40
2018-07-23T07:12:49.009Z,15.70
2018-07-23T07:15:19.287Z,10.93
2018-07-23T07:17:49.380Z,11.87
2018-07-23T07:20:19.811Z,10.27
2018-07-23T07:22:49.851Z,12.07
2018-07-23T07:25:19.934Z,8.30
2018-07-23T07:27:49.995Z,15.27
2018-07-23T07:30:19.582Z,11.73
2018-07-23T07:32:49.618Z,15.93
2018-07-23T07:35:19.794Z,11.67
2018-07-23T07:38:15.679Z,9.03
2018-07-23T07:40:52.192Z,12.43
2018-07-23T07:43:22.334Z,11.10
2018-07-23T07:45:56.624Z,7.30
2018-07-23T07:48:27.307Z,7.63
2018-07-23T07:50:57.590Z,9.67
2018-07-23T07:53:34.074Z,9.00
2018-07-23T07:56:04.235Z,9.30
2018-07-23T07:58:34.265Z,7.50
2018-07-23T08:01:04.398Z,10.30
2018-07-23T08:03:34.434Z,10.23
2018-07-23T08:06:04.535Z,8.47
2018-07-23T08:08:34.596Z,8.43
2018-07-23T08:11:04.835Z,10.83
2018-07-23T08:13:34.978Z,12.33
2018-07-23T08:16:06.807Z,7.20
2018-07-23T08:18:36.858Z,7.53
2018-07-23T08:21:07.187Z,9.80
2018-07-23T08:23:37.467Z,11.57
2018-07-23T08:26:07.586Z,10.47
2018-07-23T08:28:38.008Z,7.13
2018-07-23T08:31:08.121Z,10.33
2018-07-23T08:33:38.166Z,7.47
2018-07-23T08:36:08.320Z,8.73
2018-07-23T08:38:38.367Z,8.27
2018-07-23T08:41:08.471Z,7.90
2018-07-23T08:43:38.489Z,8.37
2018-07-23T08:46:08.582Z,6.77
2018-07-23T08:48:38.679Z,8.47
2018-07-23T08:51:08.821Z,10.97
2018-07-23T08:53:38.896Z,7.17
2018-07-23T08:56:09.151Z,9.77
2018-07-23T08:58:38.569Z,6.17
2018-07-23T09:01:08.558Z,12.10
2018-07-23T09:03:38.626Z,8.70
2018-07-23T09:06:08.670Z,6.37
2018-07-23T09:08:38.724Z,7.93
2018-07-23T09:11:08.782Z,7.00
2018-07-23T09:13:43.410Z,8.70
2018-07-23T09:16:13.526Z,7.20
2018-07-23T09:18:44.549Z,11.80
2018-07-23T09:21:18.937Z,6.43
2018-07-23T09:23:49.034Z,7.17
2018-07-23T09:26:19.135Z,8.10
2018-07-23T09:28:49.372Z,10.73
2018-07-23T09:31:19.393Z,6.40
2018-07-23T09:33:49.436Z,7.73
2018-07-23T09:36:19.479Z,9.73
2018-07-23T09:38:49.550Z,8.23
2018-07-23T09:41:19.586Z,6.53
2018-07-23T09:43:49.033Z,5.13
2018-07-23T09:46:19.446Z,9.43
2018-07-23T09:48:49.515Z,5.33
2018-07-23T09:51:19.530Z,7.27
2018-07-23T09:53:49.565Z,6.17
2018-07-23T09:56:19.608Z,7.73
2018-07-23T09:58:49.698Z,6.73
2018-07-23T10:01:20.356Z,7.73
2018-07-23T10:03:50.425Z,6.47
2018-07-23T10:06:20.487Z,11.93
2018-07-23T10:08:50.564Z,6.37
2018-07-23T10:11:20.826Z,5.53
2018-07-23T10:13:50.858Z,9.47
2018-07-23T10:16:20.898Z,5.83
2018-07-23T10:18:51.051Z,5.63
2018-07-23T10:21:21.118Z,8.23
2018-07-23T10:23:51.178Z,9.53
2018-07-23T10:26:37.845Z,9.70
2018-07-23T10:29:08.394Z,5.50
2018-07-23T10:31:38.586Z,9.70
2018-07-23T10:34:27.436Z,8.53
2018-07-23T10:36:57.720Z,6.53
2018-07-23T10:39:27.778Z,8.33
2018-07-23T10:41:57.773Z,5.63
2018-07-23T10:44:28.930Z,7.30
2018-07-23T10:46:58.945Z,13.73
2018-07-23T10:49:29.005Z,44.13
2018-07-23T10:51:59.004Z,6.20
2018-07-23T10:57:20.845Z,10.80
2018-07-23T10:59:50.903Z,7.03
2018-07-23T11:02:20.906Z,7.67
2018-07-23T11:04:51.912Z,6.20
2018-07-23T11:07:24.873Z,5.87
2018-07-23T11:09:55.095Z,10.57
2018-07-23T11:12:25.042Z,9.23
2018-07-23T11:14:55.427Z,6.00
2018-07-23T11:17:25.457Z,6.00
2018-07-23T11:19:55.595Z,7.53
2018-07-23T11:22:25.667Z,12.03
2018-07-23T11:24:55.782Z,6.93
2018-07-23T11:27:26.116Z,6.93
2018-07-23T11:29:56.142Z,7.37
2018-07-23T11:32:25.637Z,6.83
2018-07-23T11:35:01.389Z,6.80
2018-07-23T11:37:32.075Z,9.03
2018-07-23T11:40:02.130Z,5.70
2018-07-23T11:42:32.267Z,11.30
2018-07-23T11:45:02.305Z,12.23
2018-07-23T11:47:32.414Z,7.50
2018-07-23T11:50:02.756Z,8.30
2018-07-23T11:52:32.974Z,5.87
2018-07-23T11:55:03.044Z,7.43
2018-07-23T11:57:33.070Z,6.53
2018-07-23T12:00:03.358Z,5.73
2018-07-23T12:02:33.432Z,6.20
2018-07-23T12:05:03.566Z,9.20
2018-07-23T12:07:33.573Z,12.47
2018-07-23T12:10:03.889Z,7.83
2018-07-23T12:12:33.973Z,5.73
2018-07-23T12:15:04.170Z,9.90
2018-07-23T12:17:34.235Z,8.83
2018-07-23T12:20:04.374Z,5.00
2018-07-23T12:22:34.458Z,5.73
2018-07-23T12:25:04.814Z,6.57
2018-07-23T12:27:34.842Z,4.77
2018-07-23T12:30:05.331Z,5.57
2018-07-23T12:32:35.862Z,5.47
2018-07-23T12:35:06.069Z,5.30
2018-07-23T12:37:36.089Z,6.20
2018-07-23T12:40:06.279Z,5.53
2018-07-23T12:42:36.284Z,5.67
2018-07-23T12:45:06.609Z,5.00
2018-07-23T12:47:36.647Z,5.83
2018-07-23T12:50:06.821Z,6.60
2018-07-23T12:52:36.931Z,9.70
2018-07-23T12:55:06.963Z,6.50
2018-07-23T12:57:37.067Z,10.00
2018-07-23T13:00:07.846Z,7.70
2018-07-23T13:02:37.865Z,7.20
2018-07-23T13:05:07.957Z,5.63
2018-07-23T13:07:37.949Z,5.53
2018-07-23T13:10:08.197Z,8.10
2018-07-23T13:12:38.205Z,9.20
2018-07-23T13:15:08.337Z,7.45
2018-07-23T13:17:38.378Z,6.28
2018-07-23T13:20:08.490Z,7.78
2018-07-23T13:22:38.610Z,6.67
2018-07-23T13:25:08.779Z,5.37
2018-07-23T13:27:38.798Z,7.80
2018-07-23T13:30:08.982Z,8.43
2018-07-23T13:32:39.026Z,6.00
2018-07-23T13:35:13.310Z,5.70
2018-07-23T13:37:44.026Z,5.78
2018-07-23T13:40:14.093Z,8.35
2018-07-23T13:42:44.369Z,6.50
2018-07-23T13:45:14.562Z,7.60
2018-07-23T13:47:45.153Z,6.80
2018-07-23T13:50:15.245Z,6.87
2018-07-23T13:52:45.317Z,8.30
2018-07-23T13:55:15.333Z,6.37
2018-07-23T13:57:45.341Z,7.58
2018-07-23T14:00:15.396Z,6.60
2018-07-23T14:02:45.477Z,5.92
2018-07-23T14:05:15.565Z,6.40
2018-07-23T14:07:45.703Z,5.85
2018-07-23T14:10:16.070Z,7.00
2018-07-23T14:12:45.593Z,6.55
2018-07-23T14:15:15.703Z,9.13
2018-07-23T14:17:45.989Z,6.80
2018-07-23T14:20:16.730Z,7.00
2018-07-23T14:22:46.909Z,7.35
2018-07-23T14:25:17.398Z,8.48
2018-07-23T14:27:47.410Z,7.10
2018-07-23T14:30:17.485Z,8.73
2018-07-23T14:32:47.771Z,6.85
2018-07-23T14:35:17.794Z,6.60
2018-07-23T14:37:50.418Z,6.90
2018-07-23T14:40:20.506Z,11.30
2018-07-23T14:42:50.639Z,9.68
2018-07-23T14:45:20.733Z,11.68
2018-07-23T14:47:50.850Z,10.50
2018-07-23T14:50:20.964Z,7.72
2018-07-23T14:52:51.421Z,7.80
2018-07-23T14:55:21.776Z,8.03
2018-07-23T14:57:51.919Z,7.50
2018-07-23T15:00:23.750Z,7.97
2018-07-23T15:02:53.901Z,7.00
2018-07-23T15:05:24.006Z,7.25
2018-07-23T15:07:54.047Z,8.65
2018-07-23T15:10:24.147Z,6.70
2018-07-23T15:12:54.292Z,9.88
2018-07-23T15:15:24.442Z,11.40
2018-07-23T15:17:54.486Z,7.45
2018-07-23T15:20:24.598Z,14.07
2018-07-23T15:25:29.271Z,7.85
2018-07-23T15:27:59.290Z,7.55
2018-07-23T15:30:29.377Z,8.85
2018-07-23T15:32:59.450Z,10.13
2018-07-23T15:35:29.505Z,9.28
2018-07-23T15:38:00.170Z,6.90
2018-07-23T15:40:31.077Z,7.10
2018-07-23T15:43:01.182Z,7.50
2018-07-23T15:45:33.285Z,7.22
2018-07-23T15:48:04.058Z,7.55
2018-07-23T15:50:34.136Z,7.97
2018-07-23T15:53:04.163Z,7.53
2018-07-23T15:55:34.316Z,8.98
2018-07-23T15:58:04.960Z,8.68
2018-07-23T16:00:35.009Z,10.25
2018-07-23T16:03:05.163Z,7.67
2018-07-23T16:05:35.199Z,7.72
2018-07-23T16:08:05.317Z,10.08
2018-07-23T16:10:36.196Z,7.67
2018-07-23T16:13:06.229Z,6.58
2018-07-23T16:15:36.457Z,9.40
2018-07-23T16:18:07.353Z,12.37
2018-07-23T16:20:37.401Z,12.68
2018-07-23T16:23:07.491Z,7.12
2018-07-23T16:25:37.568Z,10.63
2018-07-23T16:28:07.261Z,17.40
2018-07-23T16:30:37.221Z,10.98
2018-07-23T16:33:07.337Z,8.70
2018-07-23T16:35:37.390Z,7.72
2018-07-23T16:38:07.550Z,8.48
2018-07-23T16:40:37.610Z,10.60
2018-07-23T16:43:07.649Z,7.33
2018-07-23T16:45:38.140Z,8.88
2018-07-23T16:48:13.341Z,12.20
2018-07-23T16:50:43.754Z,12.53
2018-07-23T16:53:13.790Z,10.30
2018-07-23T16:55:43.526Z,8.90
2018-07-23T16:58:13.445Z,17.32
2018-07-23T17:00:43.569Z,11.97
2018-07-23T17:03:13.618Z,7.60
2018-07-23T17:05:45.993Z,10.82
2018-07-23T17:08:16.876Z,8.23
2018-07-23T17:10:46.993Z,14.80
2018-07-23T17:13:17.020Z,14.47
2018-07-23T17:15:47.261Z,14.03
2018-07-23T17:18:17.349Z,8.00
2018-07-23T17:20:47.473Z,14.23
2018-07-23T17:23:16.972Z,9.13
2018-07-23T17:25:47.100Z,10.90
2018-07-23T17:28:17.187Z,12.67
2018-07-23T17:30:47.301Z,9.73
2018-07-23T17:33:17.382Z,10.83
2018-07-23T17:35:47.424Z,11.27
2018-07-23T17:38:17.441Z,13.30
2018-07-23T17:40:47.629Z,14.87
2018-07-23T17:43:17.845Z,9.50
2018-07-23T17:45:47.946Z,14.67
2018-07-23T17:48:18.184Z,16.43
2018-07-23T17:50:56.689Z,13.33
2018-07-23T17:53:26.734Z,14.90
2018-07-23T17:56:05.281Z,11.70
2018-07-23T17:58:36.087Z,15.73
2018-07-23T18:01:06.321Z,10.13
2018-07-23T18:03:36.480Z,9.77
2018-07-23T18:06:07.127Z,14.43
2018-07-23T18:08:37.233Z,11.03
2018-07-23T18:11:07.422Z,14.20
2018-07-23T18:13:37.557Z,12.00
2018-07-23T18:16:07.697Z,19.60
2018-07-23T18:18:37.802Z,13.47
2018-07-23T18:21:07.973Z,11.77
2018-07-23T18:23:38.109Z,17.13
2018-07-23T18:26:08.293Z,11.80
2018-07-23T18:28:38.516Z,12.67
2018-07-23T18:31:08.118Z,13.50
2018-07-23T18:35:02.361Z,15.93
2018-07-23T18:37:32.497Z,22.37
2018-07-23T18:40:02.614Z,18.77
2018-07-23T18:42:32.816Z,16.67
2018-07-23T18:45:02.833Z,18.53
2018-07-23T18:47:32.976Z,16.40
2018-07-23T18:50:02.991Z,19.03
2018-07-23T18:52:33.292Z,16.37
2018-07-23T18:55:03.337Z,20.17
2018-07-23T18:57:33.856Z,21.77
2018-07-23T19:00:04.010Z,18.73
2018-07-23T19:02:34.184Z,26.47
2018-07-23T19:05:04.421Z,25.97
2018-07-23T19:07:34.848Z,17.17
2018-07-23T19:10:05.565Z,24.37
2018-07-23T19:12:35.713Z,25.37
2018-07-23T19:15:07.114Z,23.27
2018-07-23T19:17:37.356Z,17.77
2018-07-23T19:20:07.479Z,14.53
2018-07-23T19:22:37.552Z,22.00
2018-07-23T19:25:08.066Z,21.17
2018-07-23T19:27:38.267Z,20.13
2018-07-23T19:30:08.479Z,23.97
2018-07-23T19:32:38.579Z,21.83
2018-07-23T19:35:14.724Z,14.60
2018-07-23T19:37:45.253Z,23.47
2018-07-23T19:40:15.292Z,19.07
2018-07-23T19:42:45.740Z,32.17
2018-07-23T19:45:15.777Z,21.50
2018-07-23T19:47:45.951Z,25.60
2018-07-23T19:50:16.045Z,16.50
2018-07-23T19:52:46.510Z,36.40
2018-07-23T19:55:16.573Z,47.90
2018-07-23T19:57:46.691Z,31.63
2018-07-23T20:00:16.829Z,17.90
2018-07-23T20:02:47.409Z,20.73
2018-07-23T20:05:17.447Z,19.67
2018-07-23T20:07:47.610Z,27.10
2018-07-23T20:10:17.725Z,19.70
2018-07-23T20:12:47.910Z,16.77
2018-07-23T20:15:17.984Z,19.90
2018-07-23T20:17:48.206Z,22.23
2018-07-23T20:20:18.316Z,17.37
2018-07-23T20:22:48.425Z,14.57
2018-07-23T20:25:18.558Z,13.57
2018-07-23T20:27:48.682Z,13.07
2018-07-23T20:30:18.794Z,13.23
2018-07-23T20:32:49.229Z,14.40
2018-07-23T20:35:19.433Z,13.30
2018-07-23T20:37:55.003Z,17.23
2018-07-23T20:40:25.158Z,16.37
2018-07-23T20:42:55.937Z,17.37
2018-07-23T20:45:26.077Z,16.47
2018-07-23T20:47:56.281Z,14.47
2018-07-23T20:50:26.752Z,19.90
2018-07-23T20:52:56.873Z,18.40
2018-07-23T20:55:27.016Z,15.47
2018-07-23T20:57:57.162Z,15.80
2018-07-23T21:00:27.323Z,13.03
2018-07-23T21:02:57.388Z,15.13
2018-07-23T21:05:27.405Z,13.90
2018-07-23T21:07:57.060Z,13.67
2018-07-23T21:10:27.125Z,13.80
2018-07-23T21:12:57.257Z,13.57
2018-07-23T21:15:27.421Z,13.17
2018-07-23T21:17:57.577Z,12.50
2018-07-23T21:20:27.654Z,14.70
2018-07-23T21:22:57.765Z,18.47
2018-07-23T21:25:47.640Z,14.90
2018-07-23T21:28:17.741Z,12.63
2018-07-23T21:30:48.345Z,12.20
2018-07-23T21:33:18.518Z,13.73
2018-07-23T21:35:48.705Z,12.63
2018-07-23T21:38:18.954Z,15.50
2018-07-23T21:40:49.021Z,12.90
2018-07-23T21:43:19.121Z,12.47
2018-07-23T21:45:58.749Z,14.13
2018-07-23T21:48:28.971Z,16.03
2018-07-23T21:50:59.099Z,13.00
2018-07-23T21:53:29.215Z,17.17
2018-07-23T21:55:59.453Z,12.53
2018-07-23T21:58:29.929Z,14.07
2018-07-23T22:01:00.063Z,12.90
2018-07-23T22:03:30.133Z,12.53
2018-07-23T22:06:00.365Z,12.40
2018-07-23T22:08:30.559Z,12.03
2018-07-23T22:11:00.733Z,12.23
2018-07-23T22:13:30.821Z,12.17
2018-07-23T22:16:00.957Z,12.33
2018-07-23T22:18:52.811Z,12.57
2018-07-23T22:21:22.909Z,11.87
2018-07-23T22:23:53.013Z,12.07
2018-07-23T22:26:23.433Z,13.33
2018-07-23T22:28:53.629Z,14.33
2018-07-23T22:31:23.713Z,14.50
2018-07-23T22:33:53.817Z,10.97
2018-07-23T22:36:23.977Z,11.70
2018-07-23T22:38:54.073Z,11.43
2018-07-23T22:41:24.153Z,12.00
2018-07-23T22:43:54.261Z,11.47
2018-07-23T22:46:24.333Z,13.73
2018-07-23T22:48:54.436Z,10.83
2018-07-23T22:51:24.524Z,11.73
2018-07-23T22:54:00.656Z,11.60
2018-07-23T22:56:30.768Z,10.60
2018-07-23T22:59:00.838Z,9.40
2018-07-23T23:01:33.498Z,11.80
2018-07-23T23:04:07.128Z,10.07
2018-07-23T23:06:37.323Z,9.93
2018-07-23T23:09:10.144Z,10.83
2018-07-23T23:11:40.344Z,10.40
2018-07-23T23:14:10.528Z,10.83
2018-07-23T23:16:40.824Z,12.17
2018-07-23T23:19:11.140Z,12.27
2018-07-23T23:21:41.305Z,10.83
2018-07-23T23:24:11.811Z,12.10
2018-07-23T23:26:41.960Z,11.23
2018-07-23T23:31:56.509Z,11.63
2018-07-23T23:34:26.637Z,12.20
2018-07-23T23:36:56.780Z,12.90
2018-07-23T23:39:26.910Z,12.53
2018-07-23T23:41:57.082Z,14.13
2018-07-23T23:44:27.213Z,14.77
2018-07-23T23:46:57.492Z,14.77
2018-07-23T23:49:27.672Z,15.37
2018-07-23T23:52:04.202Z,14.93
2018-07-23T23:54:33.736Z,16.40
2018-07-23T23:57:03.782Z,17.77
2018-07-23T23:59:33.917Z,16.00
